METAR Data
IDs: Format: Raw Decoded Include TAF

Data at: 1747 UTC 25 Mar 2019

KRPH 251735Z AUTO 35009G14KT 10SM CLR 18/09 A3026 RMK AO2 T01810091
KRPH 251715Z AUTO 04007KT 10SM CLR 18/09 A3026 RMK AO2 T01750088
KRPH 251655Z AUTO 36010G16KT 10SM CLR 17/09 A3026 RMK AO2 T01730090
KRPH 251635Z AUTO 36009KT 330V030 10SM CLR 17/09 A3026 RMK AO2 T01700089
KRPH 251615Z AUTO 02006KT 10SM CLR 17/09 A3026 RMK AO2 T01680091
KRPH 251555Z AUTO 01012G15KT 10SM CLR 16/09 A3025 RMK AO2 T01630089
KRPH 251535Z AUTO 01008G15KT 10SM CLR 16/09 A3025 RMK AO2 T01560088
KRPH 251515Z AUTO 02008KT 10SM CLR 15/09 A3024 RMK AO2 T01480085
KRPH 251455Z AUTO 36009KT 10SM CLR 14/09 A3023 RMK AO2 T01440090
KRPH 251435Z AUTO 02006KT 10SM CLR 14/09 A3022 RMK AO2 T01350092
KRPH 251415Z AUTO 36005KT 10SM CLR 12/09 A3021 RMK AO2 T01210093
KRPH 251355Z AUTO 35006KT 10SM CLR 11/09 A3021 RMK AO2 T01100091
KRPH 251335Z AUTO 00000KT 10SM CLR 10/09 A3019 RMK AO2 T00990086
KRPH 251315Z AUTO 00000KT 10SM CLR 09/08 A3018 RMK AO2 T00900078
KRPH 251255Z AUTO 00000KT 10SM CLR 08/08 A3017 RMK AO2 T00810077
KRPH 251235Z AUTO 00000KT 10SM CLR 08/08 A3016 RMK AO2 T00830077
KRPH 251215Z AUTO 00000KT 10SM CLR 09/08 A3016 RMK AO2 T00860078
KRPH 251155Z AUTO 00000KT 10SM CLR 09/08 A3014 RMK AO2 T00890080 10145 20088
KRPH 251135Z AUTO 00000KT 10SM CLR 09/08 A3013 RMK AO2 T00910080
KRPH 251115Z AUTO 00000KT 10SM CLR 09/08 A3013 RMK AO2 T00910080
KRPH 251055Z AUTO 01003KT 10SM CLR 10/08 A3013 RMK AO2 T00950080
KRPH 251035Z AUTO 01003KT 10SM CLR 10/08 A3012 RMK AO2 T00970082
KRPH 251015Z AUTO 36004KT 10SM CLR 10/08 A3011 RMK AO2 T01010084
KRPH 250955Z AUTO 36006KT 10SM CLR 11/09 A3011 RMK AO2 T01050086
KRPH 250935Z AUTO 01005KT 10SM CLR 10/09 A3010 RMK AO2 T01040085
KRPH 250915Z AUTO 00000KT 10SM CLR 10/08 A3010 RMK AO2 T01030083
KRPH 250855Z AUTO 01003KT 10SM CLR 10/08 A3008 RMK AO2 T01030083
KRPH 250835Z AUTO 35005KT 10SM CLR 10/08 A3007 RMK AO2 T01040080
KRPH 250815Z AUTO 36003KT 10SM CLR 11/08 A3006 RMK AO2 T01080081
KRPH 250755Z AUTO 36005KT 10SM CLR 11/08 A3006 RMK AO2 T01100081
KRPH 250735Z AUTO 36004KT 10SM CLR 11/08 A3006 RMK AO2 T01130081
KRPH 250715Z AUTO 00000KT 10SM CLR 12/08 A3006 RMK AO2 T01210082
KRPH 250655Z AUTO 00000KT 10SM CLR 13/08 A3006 RMK AO2 T01300084
KRPH 250635Z AUTO 06003KT 10SM CLR 14/09 A3007 RMK AO2 T01360085
KRPH 250615Z AUTO 07005KT 10SM CLR 14/09 A3006 RMK AO2 T01420090
KRPH 250555Z AUTO 06007KT 10SM CLR 15/10 A3006 RMK AO2 T01450095 10231 20145 402740144
KRPH 250535Z AUTO 05008KT 10SM CLR 15/10 A3006 RMK AO2 T01470098
KRPH 250515Z AUTO 04006KT 10SM CLR 15/10 A3007 RMK AO2 T01490101
KRPH 250455Z AUTO 04006KT 10SM CLR 15/10 A3006 RMK AO2 T01520102
KRPH 250435Z AUTO 04005KT 10SM CLR 15/11 A3006 RMK AO2 T01480105
KRPH 250415Z AUTO 01006KT 10SM CLR 15/11 A3005 RMK AO2 T01510105
KRPH 250355Z AUTO 03003KT 10SM CLR 15/11 A3005 RMK AO2 T01520105
KRPH 250335Z AUTO 02003KT 10SM CLR 16/11 A3004 RMK AO2 T01590105
KRPH 250315Z AUTO 02005KT 10SM CLR 17/11 A3002 RMK AO2 T01660107
KRPH 250255Z AUTO 04003KT 10SM CLR 17/11 A3001 RMK AO2 T01710110
KRPH 250235Z AUTO 03003KT 10SM CLR 18/11 A3000 RMK AO2 T01750110
KRPH 250215Z AUTO 01005KT 10SM CLR 18/11 A2999 RMK AO2 T01750107
KRPH 250155Z AUTO 01004KT 10SM CLR 18/10 A2999 RMK AO2 T01820103
KRPH 250135Z AUTO 35006KT 10SM CLR 19/11 A2998 RMK AO2 T01880105
KRPH 250115Z AUTO 33007KT 10SM CLR 20/10 A2998 RMK AO2 T01950103
KRPH 250055Z AUTO 34006KT 10SM CLR 20/10 A2997 RMK AO2 T02030097
KRPH 250035Z AUTO 34007KT 10SM CLR 21/10 A2996 RMK AO2 T02110095
KRPH 250015Z AUTO 34008KT 10SM CLR 23/09 A2995 RMK AO2 T02250094
KRPH 242355Z AUTO 33008KT 10SM CLR 23/10 A2995 RMK AO2 T02320098 10274 20232
KRPH 242335Z AUTO 33009G15KT 10SM CLR 24/10 A2995 RMK AO2 T02370103
KRPH 242315Z AUTO 33010KT 10SM CLR 24/11 A2994 RMK AO2 T02370112
KRPH 242255Z AUTO 33010G14KT 10SM CLR 24/12 A2994 RMK AO2 T02410118
KRPH 242235Z AUTO 33011G15KT 10SM CLR 24/13 A2994 RMK AO2 T02400126
KRPH 242215Z AUTO 33009G14KT 10SM CLR 26/14 A2994 RMK AO2 T02550143
KRPH 242155Z AUTO 32008G15KT 10SM CLR 25/14 A2994 RMK AO2 T02520141
KRPH 242135Z AUTO 33012KT 10SM CLR 26/15 A2995 RMK AO2 T02580148
KRPH 242115Z AUTO 31010KT 10SM SCT050 27/15 A2995 RMK AO2 T02660150
KRPH 242055Z AUTO 31010KT 10SM SCT050 26/15 A2995 RMK AO2 T02550148
KRPH 242035Z AUTO 21004KT 10SM CLR 27/15 A2995 RMK AO2 T02710153
KRPH 242015Z AUTO 27006KT 10SM CLR 27/15 A2996 RMK AO2 T02740153
KRPH 241950Z AUTO 29009KT 10SM CLR 26/16 A2996 RMK AO2 T02610161
KRPH 241935Z AUTO 25007KT 10SM SCT047 26/16 A2997 RMK AO2 T02630160
KRPH 241915Z AUTO 25007KT 10SM SCT049 26/15 A2998 RMK AO2 T02580152
KRPH 241855Z AUTO 24009KT 10SM CLR 26/15 A2998 RMK AO2 T02590150
KRPH 241835Z AUTO 23005KT 10SM SCT038 25/16 A2999 RMK AO2 T02530155
KRPH 241815Z AUTO 25005KT 10SM SCT038 25/16 A2999 RMK AO2 T02530161
KRPH 241755Z AUTO 22008KT 10SM SCT036 25/16 A3001 RMK AO2 T02480156 10250 20145
KRPH 241735Z AUTO 20008KT 10SM SCT034 24/16 A3001 RMK AO2 T02430162
KRPH 241715Z AUTO 22008G15KT 190V250 10SM SCT030 24/17 A3001 RMK AO2 T02350166
KRPH 241655Z AUTO 24008G15KT 10SM SCT028 23/16 A3002 RMK AO2 T02300162
KRPH 241635Z AUTO 21010G14KT 10SM SCT026 23/17 A3003 RMK AO2 T02270166
KRPH 241615Z AUTO 22009KT 10SM SCT022 22/17 A3003 RMK AO2 T02150166
KRPH 241555Z AUTO 22010G15KT 10SM SCT020 21/17 A3003 RMK AO2 T02110165
KRPH 241535Z AUTO 23007KT 10SM SCT020 SCT070 SCT090 20/17 A3003 RMK AO2 T02040166
KRPH 241515Z AUTO 20008KT 10SM SCT018 SCT070 SCT090 20/17 A3003 RMK AO2 T02010166
KRPH 241455Z AUTO 20006KT 10SM CLR 19/16 A3003 RMK AO2 T01900164
KRPH 241435Z AUTO 19007KT 10SM CLR 18/16 A3002 RMK AO2 T01810160
KRPH 241415Z AUTO 16007KT 10SM CLR 17/16 A3002 RMK AO2 T01730157
KRPH 241355Z AUTO 15005KT 10SM CLR 17/16 A3001 RMK AO2 T01670155
KRPH 241335Z AUTO 15003KT 10SM CLR 16/15 A3001 RMK AO2 T01590153
KRPH 241315Z AUTO 14005KT 10SM CLR 16/15 A3000 RMK AO2 T01550151
KRPH 241255Z AUTO 14004KT 10SM CLR 15/15 A2999 RMK AO2 T01510150
KRPH 241235Z AUTO 14005KT 10SM CLR 15/15 A2998 RMK AO2 T01490149
KRPH 241215Z AUTO 14005KT 10SM CLR 15/15 A2998 RMK AO2 T01450145
KRPH 241155Z AUTO 14004KT 10SM CLR 15/15 A2998 RMK AO2 T01450145 10166 20144
KRPH 241135Z AUTO 13004KT 10SM CLR 15/15 A2998 RMK AO2 T01450145
KRPH 241115Z AUTO 14004KT 10SM CLR 15/15 A2998 RMK AO2 T01460146
KRPH 241055Z AUTO 12003KT 10SM CLR 15/15 A2998 RMK AO2 T01450145
KRPH 241035Z AUTO 00000KT 10SM CLR 15/15 A2998 RMK AO2 T01510148
KRPH 241015Z AUTO 15004KT 10SM CLR 16/15 A2997 RMK AO2 T01560150
KRPH 240955Z AUTO 16006KT 10SM CLR 16/15 A2996 RMK AO2 T01600152
KRPH 240935Z AUTO 17007KT 10SM CLR 16/15 A2996 RMK AO2 T01600153
KRPH 240915Z AUTO 16006KT 10SM CLR 16/15 A2996 RMK AO2 T01610153
KRPH 240855Z AUTO 16007KT 10SM CLR 16/16 A2996 RMK AO2 T01620155
KRPH 240835Z AUTO 16007KT 10SM CLR 16/16 A2996 RMK AO2 T01630155
KRPH 240815Z AUTO 16007KT 10SM CLR 16/16 A2997 RMK AO2 T01640155
KRPH 240755Z AUTO 16005KT 10SM CLR 16/15 A2997 RMK AO2 T01620154
KRPH 240735Z AUTO 15004KT 10SM CLR 16/15 A2997 RMK AO2 T01620153
KRPH 240715Z AUTO 16005KT 10SM CLR 16/16 A2997 RMK AO2 T01630155
KRPH 240655Z AUTO 14005KT 10SM CLR 16/15 A2998 RMK AO2 T01610153
KRPH 240635Z AUTO 13004KT 10SM CLR 16/15 A2998 RMK AO2 T01610152
KRPH 240615Z AUTO 14004KT 10SM CLR 17/16 A2998 RMK AO2 T01650155
KRPH 240555Z AUTO 15005KT 10SM CLR 17/16 A2998 RMK AO2 T01660155 10206 20166 402620139